Bowmansville, PA

6:27 AM EDT on July 04, 2015 (GMT -0400)
Fivepointville Rd. | | Change Station
CLOSE
Current Station
Personal Weather Station
Location: Denver, PA
Elevation: 404 ft
Nearby Weather Stations

Elev 404 ft 40.18 °N, 76.05 °W | Updated 7 minutes ago

Overcast
Overcast
64.6 °F
Feels Like 64.6 °F
N
0.0
Wind Variable Wind from South

Today
High -- | Low -- °F
--% Chance of Precip.
Yesterday
High -- | Low -- °F
Precip. -- in
5:39 AM 8:36 PM
Waning Gibbous, 93% visible
Pressure 29.92 in
Visibility 9.0 miles
Clouds Mostly Cloudy 7000 ft
Overcast 9000 ft
Dew Point 63 °F
Humidity 96%
Rainfall 0.04 in
Snow Depth Not available.
UV 0 out of 12
Pollen 2.50 out of 12
Air Quality Not available.
Flu Activity Not available.
METAR KRDG 040954Z 35003KT 9SM BKN070 OVC090 19/17 A2991 RMK AO2 RAE15 SLP131 P0000 T01890172

More Conditions Fewer Conditions

Pressure 29.92 in
Visibility 9.0 miles
Clouds Mostly Cloudy 7000 ft
Overcast 9000 ft
Dew Point 63 °F
Humidity 96%
Rainfall 0.04 in
Snow Depth Not available.
UV 0 out of 12
Pollen 2.50 out of 12
Air Quality Not available.
Flu Activity Not available.
METAR KRDG 040954Z 35003KT 9SM BKN070 OVC090 19/17 A2991 RMK AO2 RAE15 SLP131 P0000 T01890172

More Conditions Fewer Conditions

10-Day Weather Forecast

×

Almanac

Astronomy

Jul. 04, 2015 Rise Set
Actual Time
Civil Twilight
Nautical Twilight
Astronomical Twilight
Moon
Length of Visible Light
Length of Day
Tomorrow will be .
, % of the Moon is Illuminated

Today's Extremes

State Highs State Lows

Community

WunderPhotos

Upload Photos

1,834,935 photos uploaded!

WunderBlogs® & News

Nearby

Air Quality

  Air Quality AQ Index Pollutant
Not available.

Snow Depth

Station Depth Elevation

Earthquake Activity

City Distance Mag. Time & Date
Minimum magnitude displayed is 2.5.

Coastal Water Temperatures

Place Temperature

Stations

Nearby Weather Stations

Station Location Temp. Windchill Dew Point Humidity Wind Precip. Elev Updated Type